Time;durP1;ratioP1;P1;durP2;ratioP2;P2;SDS_P1;SDS_P2;PMS_P1;PMS_P2;Temp;Humidity;BMP_temperature;BMP_pressure;BME280_temperature;BME280_humidity;BME280_pressure;Samples;Min_cycle;Max_cycle;Signal;HPM_P1;HPM_P2
2024/04/16 00:01:49;;;;;;;;;;;;;;;;;;2208310;66;1921;-13
2024/04/16 00:04:21;;;;;;;;;;;;;;;;;;2205541;66;1883;-14
2024/04/16 00:06:51;;;;;;;;;;;;;;;;;;2205416;66;2029;-13
2024/04/16 00:09:22;;;;;;;;;;;;;;;;;;2205789;59;2119;-13
2024/04/16 00:11:52;;;;;;;;;;;;;;;;;;2207777;66;2458;-13
2024/04/16 00:14:22;;;;;;;;;;;;;;;;;;2201950;66;2758;-14
2024/04/16 00:16:53;;;;;;;;;;;;;;;;;;2204968;66;2686;-13
2024/04/16 00:19:23;;;;;;;;;;;;;;;;;;2207352;66;1965;-15
2024/04/16 00:21:54;;;;;;;;;;;;;;;;;;2208875;66;2184;-14
2024/04/16 00:24:24;;;;;;;;;;;;;;;;;;2205418;59;2477;-14
2024/04/16 00:26:54;;;;;;;;;;;;;;;;;;2208979;59;1984;-14
2024/04/16 00:29:25;;;;;;;;;;;;;;;;;;2208042;58;2610;-14
2024/04/16 00:31:55;;;;;;;;;;;;;;;;;;2207912;58;2656;-14
2024/04/16 00:34:25;;;;;;;;;;;;;;;;;;2208102;67;2015;-14
2024/04/16 00:36:55;;;;;;;;;;;;;;;;;;2208995;58;2516;-14
2024/04/16 00:39:26;;;;;;;;;;;;;;;;;;2205174;66;1863;-15
2024/04/16 00:41:56;;;;;;;;;;;;;;;;;;2205209;66;2004;-14
2024/04/16 00:44:27;;;;;;;;;;;;;;;;;;2208457;66;1845;-14
2024/04/16 00:46:57;;;;;;;;;;;;;;;;;;2208705;66;2002;-14
2024/04/16 00:49:28;;;;;;;;;;;;;;;;;;2207757;66;1935;-14
2024/04/16 00:51:59;;;;;;;;;;;;;;;;;;2205888;66;1797;-14
2024/04/16 00:54:29;;;;;;;;;;;;;;;;;;2208388;66;1842;-14
2024/04/16 00:57:00;;;;;;;;;;;;;;;;;;2205673;66;2170;-14
2024/04/16 00:59:34;;;;;;;;;;;;;;;;;;2204988;66;2112;-14
2024/04/16 01:02:04;;;;;;;;;;;;;;;;;;2203299;59;1802;-14
2024/04/16 01:04:34;;;;;;;;;;;;;;;;;;2204442;66;1883;-14
2024/04/16 01:07:05;;;;;;;;;;;;;;;;;;2209079;66;2090;-14
2024/04/16 01:09:35;;;;;;;;;;;;;;;;;;2209827;59;1792;-14
2024/04/16 01:12:06;;;;;;;;;;;;;;;;;;2208605;66;1822;-13
2024/04/16 01:14:36;;;;;;;;;;;;;;;;;;2206564;66;1897;-14
2024/04/16 01:17:07;;;;;;;;;;;;;;;;;;2207283;66;2597;-13
2024/04/16 01:19:37;;;;;;;;;;;;;;;;;;2206153;66;2749;-14
2024/04/16 01:22:07;;;;;;;;;;;;;;;;;;2207737;66;1862;-14
2024/04/16 01:24:37;;;;;;;;;;;;;;;;;;2209840;58;1851;-13
2024/04/16 01:27:08;;;;;;;;;;;;;;;;;;2207568;58;2040;-14
2024/04/16 01:29:38;;;;;;;;;;;;;;;;;;2203559;66;2010;-13
2024/04/16 01:32:08;;;;;;;;;;;;;;;;;;2207709;59;2563;-14
2024/04/16 01:34:39;;;;;;;;;;;;;;;;;;2210353;58;2322;-14
2024/04/16 01:37:09;;;;;;;;;;;;;;;;;;2207990;66;1715;-14
2024/04/16 01:39:40;;;;;;;;;;;;;;;;;;2209351;66;1826;-13
2024/04/16 01:42:10;;;;;;;;;;;;;;;;;;2204071;66;1913;-13
2024/04/16 01:44:42;;;;;;;;;;;;;;;;;;2210096;66;1967;-14
2024/04/16 01:47:12;;;;;;;;;;;;;;;;;;2207437;66;2033;-15
2024/04/16 01:49:42;;;;;;;;;;;;;;;;;;2208942;66;1828;-16
2024/04/16 01:52:13;;;;;;;;;;;;;;;;;;2207281;66;1840;-16
2024/04/16 01:54:44;;;;;;;;;;;;;;;;;;2208856;66;1981;-17
2024/04/16 01:57:14;;;;;;;;;;;;;;;;;;2207321;66;2175;-16
2024/04/16 01:59:45;;;;;;;;;;;;;;;;;;2205474;66;1871;-17
2024/04/16 02:02:15;;;;;;;;;;;;;;;;;;2203917;59;1911;-16
2024/04/16 02:04:46;;;;;;;;;;;;;;;;;;2209808;66;1853;-17
2024/04/16 02:07:19;;;;;;;;;;;;;;;;;;2208449;59;2006;-16
2024/04/16 02:09:49;;;;;;;;;;;;;;;;;;2209924;59;1998;-16
2024/04/16 02:12:20;;;;;;;;;;;;;;;;;;2202112;66;1834;-16
2024/04/16 02:14:50;;;;;;;;;;;;;;;;;;2206538;66;1885;-16
2024/04/16 02:17:23;;;;;;;;;;;;;;;;;;2206865;66;1869;-16
2024/04/16 02:19:54;;;;;;;;;;;;;;;;;;2206314;66;1834;-17
2024/04/16 02:22:24;;;;;;;;;;;;;;;;;;2208080;66;1769;-16
2024/04/16 02:24:55;;;;;;;;;;;;;;;;;;2209713;58;1734;-16
2024/04/16 02:27:25;;;;;;;;;;;;;;;;;;2208433;58;1926;-16
2024/04/16 02:29:58;;;;;;;;;;;;;;;;;;2209463;64;1851;-16
2024/04/16 02:32:29;;;;;;;;;;;;;;;;;;2208168;58;2073;-16
2024/04/16 02:34:59;;;;;;;;;;;;;;;;;;2209854;58;2079;-16
2024/04/16 02:37:30;;;;;;;;;;;;;;;;;;2205373;66;1914;-16
2024/04/16 02:40:00;;;;;;;;;;;;;;;;;;2209241;66;1964;-17
2024/04/16 02:42:30;;;;;;;;;;;;;;;;;;2204709;66;2533;-16
2024/04/16 02:45:01;;;;;;;;;;;;;;;;;;2206244;66;1951;-17
2024/04/16 02:47:31;;;;;;;;;;;;;;;;;;2207417;66;2018;-16
2024/04/16 02:50:02;;;;;;;;;;;;;;;;;;2205974;66;1984;-16
2024/04/16 02:52:32;;;;;;;;;;;;;;;;;;2206624;66;1936;-16
2024/04/16 02:55:03;;;;;;;;;;;;;;;;;;2209337;66;1854;-16
2024/04/16 02:57:34;;;;;;;;;;;;;;;;;;2208278;66;2001;-16
2024/04/16 03:00:04;;;;;;;;;;;;;;;;;;2205880;66;1843;-17
2024/04/16 03:02:35;;;;;;;;;;;;;;;;;;2207324;58;1890;-16
2024/04/16 03:05:05;;;;;;;;;;;;;;;;;;2205402;66;1901;-16
2024/04/16 03:07:36;;;;;;;;;;;;;;;;;;2205854;66;1958;-18
2024/04/16 03:10:06;;;;;;;;;;;;;;;;;;2206600;59;1748;-17
2024/04/16 03:12:37;;;;;;;;;;;;;;;;;;2203851;66;1917;-16
2024/04/16 03:15:08;;;;;;;;;;;;;;;;;;2208925;66;1978;-16
2024/04/16 03:17:38;;;;;;;;;;;;;;;;;;2207771;66;1874;-16
2024/04/16 03:20:09;;;;;;;;;;;;;;;;;;2209626;66;1850;-17
2024/04/16 03:22:39;;;;;;;;;;;;;;;;;;2204932;59;1985;-17
2024/04/16 03:25:10;;;;;;;;;;;;;;;;;;2210037;59;1818;-16
2024/04/16 03:27:40;;;;;;;;;;;;;;;;;;2208348;58;2073;-17
2024/04/16 03:30:10;;;;;;;;;;;;;;;;;;2208494;63;2448;-16
2024/04/16 03:32:41;;;;;;;;;;;;;;;;;;2205810;58;1956;-17
2024/04/16 03:35:11;;;;;;;;;;;;;;;;;;2209909;58;2454;-16
2024/04/16 03:37:44;;;;;;;;;;;;;;;;;;2207504;66;1912;-17
2024/04/16 03:40:14;;;;;;;;;;;;;;;;;;2205682;66;1975;-16
2024/04/16 03:42:45;;;;;;;;;;;;;;;;;;2205597;66;2578;-16
2024/04/16 03:45:15;;;;;;;;;;;;;;;;;;2207837;66;1799;-16
2024/04/16 03:47:46;;;;;;;;;;;;;;;;;;2206070;66;2014;-16
2024/04/16 03:50:16;;;;;;;;;;;;;;;;;;2207779;66;2111;-16
2024/04/16 03:52:46;;;;;;;;;;;;;;;;;;2208543;66;1779;-16
2024/04/16 03:55:17;;;;;;;;;;;;;;;;;;2207551;66;1988;-16
2024/04/16 03:57:47;;;;;;;;;;;;;;;;;;2205556;66;1814;-16
2024/04/16 04:03:06;;;;;;;;;;;;;;;;;;2209173;66;1852;-16
2024/04/16 04:05:37;;;;;;;;;;;;;;;;;;2201981;66;1847;-17
2024/04/16 04:08:07;;;;;;;;;;;;;;;;;;2209489;67;1988;-17
2024/04/16 04:10:37;;;;;;;;;;;;;;;;;;2207583;59;2691;-18
2024/04/16 04:13:08;;;;;;;;;;;;;;;;;;2209905;67;1870;-16
2024/04/16 04:15:38;;;;;;;;;;;;;;;;;;2207621;66;1882;-17
2024/04/16 04:18:08;;;;;;;;;;;;;;;;;;2209566;67;2450;-16
2024/04/16 04:20:39;;;;;;;;;;;;;;;;;;2208478;66;1794;-16
2024/04/16 04:23:09;;;;;;;;;;;;;;;;;;2209329;58;1870;-16
2024/04/16 04:25:39;;;;;;;;;;;;;;;;;;2207896;58;2545;-17
2024/04/16 04:28:10;;;;;;;;;;;;;;;;;;2209025;66;1909;-16
2024/04/16 04:30:40;;;;;;;;;;;;;;;;;;2208858;66;1756;-17
2024/04/16 04:33:11;;;;;;;;;;;;;;;;;;2210409;58;1877;-16
2024/04/16 04:35:41;;;;;;;;;;;;;;;;;;2209279;58;2155;-16
2024/04/16 04:38:11;;;;;;;;;;;;;;;;;;2209283;66;1801;-17
2024/04/16 04:40:41;;;;;;;;;;;;;;;;;;2207959;66;1915;-16
2024/04/16 04:43:12;;;;;;;;;;;;;;;;;;2210398;59;2500;-16
2024/04/16 04:45:42;;;;;;;;;;;;;;;;;;2208413;66;1890;-16
2024/04/16 04:48:13;;;;;;;;;;;;;;;;;;2209729;66;1984;-16
2024/04/16 04:50:43;;;;;;;;;;;;;;;;;;2207578;66;1917;-16
2024/04/16 04:53:13;;;;;;;;;;;;;;;;;;2208674;66;1999;-16
2024/04/16 04:55:43;;;;;;;;;;;;;;;;;;2208395;66;1980;-17
2024/04/16 04:58:14;;;;;;;;;;;;;;;;;;2209427;66;2671;-17
2024/04/16 05:00:44;;;;;;;;;;;;;;;;;;2205140;58;2268;-16
2024/04/16 05:03:14;;;;;;;;;;;;;;;;;;2210540;66;1825;-16
2024/04/16 05:05:45;;;;;;;;;;;;;;;;;;2208999;66;2081;-17
2024/04/16 05:08:15;;;;;;;;;;;;;;;;;;2209363;59;2127;-16
2024/04/16 05:10:50;;;;;;;;;;;;;;;;;;2207649;59;1959;-17
2024/04/16 05:13:20;;;;;;;;;;;;;;;;;;2207243;66;1823;-16
2024/04/16 05:15:51;;;;;;;;;;;;;;;;;;2210522;66;1743;-16
2024/04/16 05:18:21;;;;;;;;;;;;;;;;;;2204742;66;2082;-16
2024/04/16 05:20:51;;;;;;;;;;;;;;;;;;2205638;66;1896;-16
2024/04/16 05:23:22;;;;;;;;;;;;;;;;;;2207999;58;3281;-17
2024/04/16 05:25:53;;;;;;;;;;;;;;;;;;2209412;59;1861;-16
2024/04/16 05:28:23;;;;;;;;;;;;;;;;;;2208341;58;2057;-16
2024/04/16 05:30:53;;;;;;;;;;;;;;;;;;2209650;66;1894;-17
2024/04/16 05:33:24;;;;;;;;;;;;;;;;;;2207965;58;1797;-16
2024/04/16 05:35:55;;;;;;;;;;;;;;;;;;2210001;58;2271;-16
2024/04/16 05:38:25;;;;;;;;;;;;;;;;;;2202229;66;1806;-16
2024/04/16 05:40:55;;;;;;;;;;;;;;;;;;2206083;66;1937;-16
2024/04/16 05:43:26;;;;;;;;;;;;;;;;;;2204658;59;2584;-17
2024/04/16 05:45:56;;;;;;;;;;;;;;;;;;2210188;66;1821;-16
2024/04/16 05:48:26;;;;;;;;;;;;;;;;;;2208129;59;2224;-16
2024/04/16 05:50:57;;;;;;;;;;;;;;;;;;2209332;66;1871;-17
2024/04/16 05:53:27;;;;;;;;;;;;;;;;;;2207646;66;2660;-17
2024/04/16 05:55:57;;;;;;;;;;;;;;;;;;2209861;66;1903;-16
2024/04/16 05:58:28;;;;;;;;;;;;;;;;;;2206474;59;2818;-16
2024/04/16 06:00:58;;;;;;;;;;;;;;;;;;2207553;58;2807;-16
2024/04/16 06:03:28;;;;;;;;;;;;;;;;;;2206785;58;2355;-16
2024/04/16 06:05:59;;;;;;;;;;;;;;;;;;2208596;59;3316;-16
2024/04/16 06:08:29;;;;;;;;;;;;;;;;;;2206424;58;2646;-16
2024/04/16 06:10:59;;;;;;;;;;;;;;;;;;2205327;59;2839;-17
2024/04/16 06:13:29;;;;;;;;;;;;;;;;;;2204420;59;2896;-17
2024/04/16 06:16:00;;;;;;;;;;;;;;;;;;2209291;58;2601;-17
2024/04/16 06:18:30;;;;;;;;;;;;;;;;;;2203163;59;3662;-16
2024/04/16 06:21:01;;;;;;;;;;;;;;;;;;2199122;59;4085;-16
2024/04/16 06:23:31;;;;;;;;;;;;;;;;;;2189332;59;9009;-17
2024/04/16 06:26:05;;;;;;;;;;;;;;;;;;2195501;59;5298;-17
2024/04/16 06:28:35;;;;;;;;;;;;;;;;;;2194305;59;5815;-16
2024/04/16 06:31:06;;;;;;;;;;;;;;;;;;2195678;59;5206;-16
2024/04/16 06:33:37;;;;;;;;;;;;;;;;;;2199739;59;2818;-16
2024/04/16 06:36:07;;;;;;;;;;;;;;;;;;2201071;59;2950;-17
2024/04/16 06:38:37;;;;;;;;;;;;;;;;;;2199697;58;2444;-16
2024/04/16 06:41:08;;;;;;;;;;;;;;;;;;2201376;66;2581;-17
2024/04/16 06:43:38;;;;;;;;;;;;;;;;;;2199665;66;2723;-16
2024/04/16 06:46:08;;;;;;;;;;;;;;;;;;2201644;66;2393;-16
2024/04/16 06:48:39;;;;;;;;;;;;;;;;;;2199706;66;2440;-16
2024/04/16 06:51:09;;;;;;;;;;;;;;;;;;2200794;59;2701;-16
2024/04/16 06:53:39;;;;;;;;;;;;;;;;;;2199822;59;2307;-16
2024/04/16 06:56:10;;;;;;;;;;;;;;;;;;2201105;59;2795;-16
2024/04/16 06:58:40;;;;;;;;;;;;;;;;;;2199244;66;2434;-16
2024/04/16 07:01:10;;;;;;;;;;;;;;;;;;2201654;59;2740;-16
2024/04/16 07:03:41;;;;;;;;;;;;;;;;;;2201991;66;3519;-16
2024/04/16 07:06:11;;;;;;;;;;;;;;;;;;2202328;66;2358;-16
2024/04/16 07:08:41;;;;;;;;;;;;;;;;;;2197360;59;2624;-16
2024/04/16 07:11:12;;;;;;;;;;;;;;;;;;2200644;59;2133;-16
2024/04/16 07:13:45;;;;;;;;;;;;;;;;;;2199084;66;1969;-16
2024/04/16 07:16:15;;;;;;;;;;;;;;;;;;2201211;58;1851;-16
2024/04/16 07:18:46;;;;;;;;;;;;;;;;;;2205425;66;1771;-16
2024/04/16 07:21:16;;;;;;;;;;;;;;;;;;2200921;66;1853;-17
2024/04/16 07:23:47;;;;;;;;;;;;;;;;;;2199881;58;2049;-16
2024/04/16 07:26:17;;;;;;;;;;;;;;;;;;2202659;59;1805;-16
2024/04/16 07:28:47;;;;;;;;;;;;;;;;;;2198924;59;2330;-17
2024/04/16 07:31:18;;;;;;;;;;;;;;;;;;2201649;66;1802;-16
2024/04/16 07:33:48;;;;;;;;;;;;;;;;;;2201267;59;2522;-16
2024/04/16 07:36:18;;;;;;;;;;;;;;;;;;2201692;59;1908;-16
2024/04/16 07:38:49;;;;;;;;;;;;;;;;;;2199718;66;2010;-16
2024/04/16 07:41:20;;;;;;;;;;;;;;;;;;2200260;66;1828;-16
2024/04/16 07:43:50;;;;;;;;;;;;;;;;;;2198135;66;2397;-17
2024/04/16 07:46:20;;;;;;;;;;;;;;;;;;2200778;59;2357;-16
2024/04/16 07:48:50;;;;;;;;;;;;;;;;;;2198354;66;2505;-16
2024/04/16 07:51:21;;;;;;;;;;;;;;;;;;2201391;66;1852;-16
2024/04/16 07:53:51;;;;;;;;;;;;;;;;;;2198906;66;2362;-16
2024/04/16 07:56:21;;;;;;;;;;;;;;;;;;2202013;66;1847;-16
2024/04/16 07:58:51;;;;;;;;;;;;;;;;;;2199961;66;1979;-16
2024/04/16 08:01:22;;;;;;;;;;;;;;;;;;2201168;66;2337;-16
2024/04/16 08:03:52;;;;;;;;;;;;;;;;;;2198994;59;2313;-16
2024/04/16 08:06:22;;;;;;;;;;;;;;;;;;2202089;66;3433;-16
2024/04/16 08:08:56;;;;;;;;;;;;;;;;;;2197745;66;2048;-16
2024/04/16 08:11:26;;;;;;;;;;;;;;;;;;2202433;66;2125;-16
2024/04/16 08:13:56;;;;;;;;;;;;;;;;;;2198869;59;2946;-17
2024/04/16 08:16:26;;;;;;;;;;;;;;;;;;2200674;59;3713;-16
2024/04/16 08:18:57;;;;;;;;;;;;;;;;;;2200402;66;1827;-16
2024/04/16 08:21:27;;;;;;;;;;;;;;;;;;2202225;66;1775;-17
2024/04/16 08:23:58;;;;;;;;;;;;;;;;;;2199585;59;2308;-17
2024/04/16 08:26:28;;;;;;;;;;;;;;;;;;2203130;59;1903;-16
2024/04/16 08:28:59;;;;;;;;;;;;;;;;;;2199906;58;1899;-16
2024/04/16 08:31:29;;;;;;;;;;;;;;;;;;2202111;59;2913;-16
2024/04/16 08:34:01;;;;;;;;;;;;;;;;;;2201383;59;2721;-16
2024/04/16 08:36:32;;;;;;;;;;;;;;;;;;2199319;58;2356;-16
2024/04/16 08:39:02;;;;;;;;;;;;;;;;;;2198256;59;2552;-16
2024/04/16 08:41:35;;;;;;;;;;;;;;;;;;2201891;66;1939;-16
2024/04/16 08:44:06;;;;;;;;;;;;;;;;;;2200772;66;2835;-16
2024/04/16 08:46:37;;;;;;;;;;;;;;;;;;2198982;59;2813;-16
2024/04/16 08:49:09;;;;;;;;;;;;;;;;;;2200520;59;3160;-15
2024/04/16 08:51:40;;;;;;;;;;;;;;;;;;2198743;66;1863;-16
2024/04/16 08:54:11;;;;;;;;;;;;;;;;;;2199691;59;3126;-15
2024/04/16 08:56:43;;;;;;;;;;;;;;;;;;2199815;59;3078;-16
2024/04/16 08:59:13;;;;;;;;;;;;;;;;;;2203470;59;2076;-15
2024/04/16 09:01:46;;;;;;;;;;;;;;;;;;2197311;59;1882;-15
2024/04/16 09:04:17;;;;;;;;;;;;;;;;;;2203450;66;1975;-15
2024/04/16 09:06:47;;;;;;;;;;;;;;;;;;2199888;59;2608;-15
2024/04/16 09:09:17;;;;;;;;;;;;;;;;;;2200879;59;2037;-15
2024/04/16 09:11:48;;;;;;;;;;;;;;;;;;2200358;66;1993;-15
2024/04/16 09:14:18;;;;;;;;;;;;;;;;;;2201698;60;1779;-15
2024/04/16 09:16:48;;;;;;;;;;;;;;;;;;2200017;66;1846;-15
2024/04/16 09:19:18;;;;;;;;;;;;;;;;;;2203365;66;1881;-16
2024/04/16 09:21:49;;;;;;;;;;;;;;;;;;2200228;66;1954;-15
2024/04/16 09:24:22;;;;;;;;;;;;;;;;;;2207627;58;1878;-15
2024/04/16 09:26:53;;;;;;;;;;;;;;;;;;2199960;59;2016;-15
2024/04/16 09:29:24;;;;;;;;;;;;;;;;;;2202574;59;2104;-15
2024/04/16 09:31:57;;;;;;;;;;;;;;;;;;2201099;59;1768;-15
2024/04/16 09:34:28;;;;;;;;;;;;;;;;;;2202524;59;1935;-15
2024/04/16 09:36:59;;;;;;;;;;;;;;;;;;2200594;58;2647;-15
2024/04/16 09:39:29;;;;;;;;;;;;;;;;;;2203330;66;1791;-15
2024/04/16 09:42:01;;;;;;;;;;;;;;;;;;2202077;59;2833;-15
2024/04/16 09:44:32;;;;;;;;;;;;;;;;;;2201850;59;1982;-15
2024/04/16 09:47:02;;;;;;;;;;;;;;;;;;2199975;66;1953;-15
2024/04/16 09:49:33;;;;;;;;;;;;;;;;;;2202605;66;2294;-15
2024/04/16 09:52:04;;;;;;;;;;;;;;;;;;2200636;66;2583;-15
2024/04/16 09:54:35;;;;;;;;;;;;;;;;;;2203046;66;2738;-14
2024/04/16 09:57:07;;;;;;;;;;;;;;;;;;2200723;59;2005;-15
2024/04/16 09:59:37;;;;;;;;;;;;;;;;;;2201529;59;1819;-14
2024/04/16 10:02:08;;;;;;;;;;;;;;;;;;2201271;59;1877;-15
2024/04/16 10:04:40;;;;;;;;;;;;;;;;;;2201061;66;1838;-15
2024/04/16 10:07:10;;;;;;;;;;;;;;;;;;2202927;66;2007;-15
2024/04/16 10:09:40;;;;;;;;;;;;;;;;;;2203386;59;1914;-14
2024/04/16 10:12:11;;;;;;;;;;;;;;;;;;2201647;66;1922;-15
2024/04/16 10:14:43;;;;;;;;;;;;;;;;;;2200980;58;2037;-15
2024/04/16 10:17:13;;;;;;;;;;;;;;;;;;2201892;66;1945;-15
2024/04/16 10:19:43;;;;;;;;;;;;;;;;;;2201250;66;1998;-15
2024/04/16 10:22:14;;;;;;;;;;;;;;;;;;2202463;66;1907;-15
2024/04/16 10:24:51;;;;;;;;;;;;;;;;;;2200955;59;2237;-14
2024/04/16 10:27:24;;;;;;;;;;;;;;;;;;2202547;59;1966;-15
2024/04/16 10:30:07;;;;;;;;;;;;;;;;;;2199723;63;2614;-15
2024/04/16 10:32:44;;;;;;;;;;;;;;;;;;2202755;59;1859;-15
2024/04/16 10:35:18;;;;;;;;;;;;;;;;;;2202511;59;2869;-15
2024/04/16 10:37:49;;;;;;;;;;;;;;;;;;2200151;59;2226;-15
2024/04/16 10:40:23;;;;;;;;;;;;;;;;;;2201051;59;2587;-14
2024/04/16 10:42:54;;;;;;;;;;;;;;;;;;2199606;59;1878;-15
2024/04/16 10:45:25;;;;;;;;;;;;;;;;;;2201328;66;2498;-15
2024/04/16 10:47:55;;;;;;;;;;;;;;;;;;2200171;58;2541;-15
2024/04/16 10:50:26;;;;;;;;;;;;;;;;;;2201386;59;2652;-15
2024/04/16 10:52:56;;;;;;;;;;;;;;;;;;2198958;59;1880;-15
2024/04/16 10:55:26;;;;;;;;;;;;;;;;;;2199379;66;1779;-15
2024/04/16 10:57:56;;;;;;;;;;;;;;;;;;2199906;66;1845;-15
2024/04/16 11:00:27;;;;;;;;;;;;;;;;;;2200776;66;1718;-15
2024/04/16 11:02:58;;;;;;;;;;;;;;;;;;2200315;59;1872;-15
2024/04/16 11:05:29;;;;;;;;;;;;;;;;;;2201556;66;1994;-14
2024/04/16 11:07:59;;;;;;;;;;;;;;;;;;2200205;66;1991;-15
2024/04/16 11:10:29;;;;;;;;;;;;;;;;;;2201688;66;1976;-15
2024/04/16 11:13:00;;;;;;;;;;;;;;;;;;2199612;66;1847;-15
2024/04/16 11:15:33;;;;;;;;;;;;;;;;;;2202156;66;1676;-14
2024/04/16 11:18:04;;;;;;;;;;;;;;;;;;2198912;59;2364;-15
2024/04/16 11:20:34;;;;;;;;;;;;;;;;;;2198785;59;1996;-15
2024/04/16 11:23:05;;;;;;;;;;;;;;;;;;2200561;58;1953;-14
2024/04/16 11:25:42;;;;;;;;;;;;;;;;;;2202678;59;1846;-15
2024/04/16 11:28:13;;;;;;;;;;;;;;;;;;2197907;59;1948;-13
2024/04/16 11:30:56;;;;;;;;;;;;;;;;;;2203845;67;1976;-14
2024/04/16 11:33:27;;;;;;;;;;;;;;;;;;2202082;59;2342;-14
2024/04/16 11:36:00;;;;;;;;;;;;;;;;;;2200247;58;2446;-14
2024/04/16 11:38:32;;;;;;;;;;;;;;;;;;2202585;59;2824;-14
2024/04/16 11:41:02;;;;;;;;;;;;;;;;;;2199817;59;1833;-14
2024/04/16 11:43:33;;;;;;;;;;;;;;;;;;2201377;66;1850;-14
2024/04/16 11:46:04;;;;;;;;;;;;;;;;;;2199991;59;1896;-15
2024/04/16 11:48:35;;;;;;;;;;;;;;;;;;2201051;66;1995;-14
2024/04/16 11:51:08;;;;;;;;;;;;;;;;;;2199960;59;1874;-14
2024/04/16 11:53:39;;;;;;;;;;;;;;;;;;2201828;59;1788;-14
2024/04/16 11:56:09;;;;;;;;;;;;;;;;;;2200100;66;1962;-14
2024/04/16 11:58:40;;;;;;;;;;;;;;;;;;2201191;67;1908;-14
2024/04/16 12:01:10;;;;;;;;;;;;;;;;;;2199610;59;2069;-15
2024/04/16 12:03:41;;;;;;;;;;;;;;;;;;2201874;66;1847;-15
2024/04/16 12:06:11;;;;;;;;;;;;;;;;;;2200125;59;2186;-15
2024/04/16 12:08:41;;;;;;;;;;;;;;;;;;2201878;66;1943;-15
2024/04/16 12:11:11;;;;;;;;;;;;;;;;;;2200533;59;2799;-14
2024/04/16 12:13:42;;;;;;;;;;;;;;;;;;2201598;66;2152;-14
2024/04/16 12:16:12;;;;;;;;;;;;;;;;;;2200024;59;1919;-14
2024/04/16 12:18:42;;;;;;;;;;;;;;;;;;2201545;66;2703;-14
2024/04/16 12:21:13;;;;;;;;;;;;;;;;;;2199785;59;1845;-14
2024/04/16 12:23:45;;;;;;;;;;;;;;;;;;2202364;58;1866;-15
2024/04/16 12:26:15;;;;;;;;;;;;;;;;;;2200185;59;2004;-15
2024/04/16 12:28:47;;;;;;;;;;;;;;;;;;2202001;66;2000;-15
2024/04/16 12:31:17;;;;;;;;;;;;;;;;;;2201094;66;1842;-15
2024/04/16 12:33:48;;;;;;;;;;;;;;;;;;2201150;59;1848;-14
2024/04/16 12:36:18;;;;;;;;;;;;;;;;;;2200390;59;2501;-15
2024/04/16 12:38:48;;;;;;;;;;;;;;;;;;2200821;66;1850;-14
2024/04/16 12:41:19;;;;;;;;;;;;;;;;;;2200944;66;1827;-14
2024/04/16 12:43:49;;;;;;;;;;;;;;;;;;2201356;66;1845;-14
2024/04/16 12:46:20;;;;;;;;;;;;;;;;;;2201710;58;2440;-14
2024/04/16 12:48:50;;;;;;;;;;;;;;;;;;2201768;59;2007;-14
2024/04/16 12:51:20;;;;;;;;;;;;;;;;;;2200367;66;2286;-15
2024/04/16 12:53:50;;;;;;;;;;;;;;;;;;2201431;66;1838;-14
2024/04/16 12:56:21;;;;;;;;;;;;;;;;;;2201760;66;2010;-14
2024/04/16 12:58:51;;;;;;;;;;;;;;;;;;2201757;66;2015;-15
2024/04/16 13:01:21;;;;;;;;;;;;;;;;;;2201191;59;2044;-15
2024/04/16 13:03:51;;;;;;;;;;;;;;;;;;2199055;66;1906;-15
2024/04/16 13:06:22;;;;;;;;;;;;;;;;;;2201488;66;2143;-15
2024/04/16 13:08:52;;;;;;;;;;;;;;;;;;2201160;66;1943;-15
2024/04/16 13:11:23;;;;;;;;;;;;;;;;;;2201944;66;2320;-15
2024/04/16 13:13:53;;;;;;;;;;;;;;;;;;2201901;66;1838;-15
2024/04/16 13:16:23;;;;;;;;;;;;;;;;;;2200478;66;1880;-14
2024/04/16 13:18:53;;;;;;;;;;;;;;;;;;2203870;66;2017;-15
2024/04/16 13:21:24;;;;;;;;;;;;;;;;;;2200541;66;2058;-15
2024/04/16 13:23:54;;;;;;;;;;;;;;;;;;2202279;58;2558;-15
2024/04/16 13:26:24;;;;;;;;;;;;;;;;;;2201493;59;2711;-15
2024/04/16 13:28:54;;;;;;;;;;;;;;;;;;2200245;58;2136;-14
2024/04/16 13:31:25;;;;;;;;;;;;;;;;;;2201452;59;1881;-15
2024/04/16 13:33:55;;;;;;;;;;;;;;;;;;2206457;58;1953;-14
2024/04/16 13:36:28;;;;;;;;;;;;;;;;;;2201043;59;2913;-14
2024/04/16 13:39:02;;;;;;;;;;;;;;;;;;2199292;66;1854;-15
2024/04/16 13:41:32;;;;;;;;;;;;;;;;;;2201193;66;1876;-14
2024/04/16 13:44:02;;;;;;;;;;;;;;;;;;2199999;66;1920;-15
2024/04/16 13:46:33;;;;;;;;;;;;;;;;;;2202026;59;1797;-14
2024/04/16 13:49:03;;;;;;;;;;;;;;;;;;2200131;66;1951;-14
2024/04/16 13:51:33;;;;;;;;;;;;;;;;;;2201606;59;1829;-14
2024/04/16 13:54:04;;;;;;;;;;;;;;;;;;2199805;58;1843;-14
2024/04/16 13:56:34;;;;;;;;;;;;;;;;;;2201873;66;1974;-14
2024/04/16 13:59:05;;;;;;;;;;;;;;;;;;2199815;66;2045;-14
2024/04/16 14:01:35;;;;;;;;;;;;;;;;;;2201836;59;1828;-14
2024/04/16 14:04:05;;;;;;;;;;;;;;;;;;2199861;58;1932;-15
2024/04/16 14:06:36;;;;;;;;;;;;;;;;;;2201473;66;2308;-14
2024/04/16 14:09:06;;;;;;;;;;;;;;;;;;2200201;59;1935;-14
2024/04/16 14:11:36;;;;;;;;;;;;;;;;;;2201692;59;1979;-14
2024/04/16 14:14:08;;;;;;;;;;;;;;;;;;2199714;66;1866;-15
2024/04/16 14:16:38;;;;;;;;;;;;;;;;;;2201937;66;1835;-14
2024/04/16 14:19:09;;;;;;;;;;;;;;;;;;2198987;66;1907;-14
2024/04/16 14:21:39;;;;;;;;;;;;;;;;;;2201447;66;1795;-14
2024/04/16 14:24:12;;;;;;;;;;;;;;;;;;2200385;66;1979;-14
2024/04/16 14:26:42;;;;;;;;;;;;;;;;;;2202156;59;1803;-14
2024/04/16 14:29:12;;;;;;;;;;;;;;;;;;2199964;59;1944;-14
2024/04/16 14:31:42;;;;;;;;;;;;;;;;;;2200777;59;2228;-14
2024/04/16 14:34:13;;;;;;;;;;;;;;;;;;2200286;59;2543;-14
2024/04/16 14:36:43;;;;;;;;;;;;;;;;;;2202243;59;2936;-15
2024/04/16 14:39:14;;;;;;;;;;;;;;;;;;2198999;66;1857;-15
2024/04/16 14:41:45;;;;;;;;;;;;;;;;;;2201375;66;1835;-15
2024/04/16 14:44:15;;;;;;;;;;;;;;;;;;2200053;66;2034;-14
2024/04/16 14:46:50;;;;;;;;;;;;;;;;;;2200731;67;1819;-15
2024/04/16 14:49:20;;;;;;;;;;;;;;;;;;2200339;66;1942;-14
2024/04/16 14:51:51;;;;;;;;;;;;;;;;;;2201230;66;2054;-14
2024/04/16 14:54:21;;;;;;;;;;;;;;;;;;2199600;59;1927;-13
2024/04/16 14:56:51;;;;;;;;;;;;;;;;;;2203777;59;1825;-14
2024/04/16 14:59:22;;;;;;;;;;;;;;;;;;2199142;59;3146;-15
2024/04/16 15:01:52;;;;;;;;;;;;;;;;;;2203650;59;1828;-14
2024/04/16 15:04:22;;;;;;;;;;;;;;;;;;2199154;59;1800;-14
2024/04/16 15:06:55;;;;;;;;;;;;;;;;;;2199478;66;2208;-15
2024/04/16 15:09:26;;;;;;;;;;;;;;;;;;2199802;59;2002;-14
2024/04/16 15:11:56;;;;;;;;;;;;;;;;;;2201203;66;1821;-14
2024/04/16 15:14:26;;;;;;;;;;;;;;;;;;2199649;66;1894;-14
2024/04/16 15:16:57;;;;;;;;;;;;;;;;;;2202038;59;2271;-14
2024/04/16 15:19:27;;;;;;;;;;;;;;;;;;2199352;59;2414;-14
2024/04/16 15:21:57;;;;;;;;;;;;;;;;;;2201267;66;1836;-14
2024/04/16 15:24:27;;;;;;;;;;;;;;;;;;2199960;59;2007;-14
2024/04/16 15:26:58;;;;;;;;;;;;;;;;;;2201978;59;1994;-13
2024/04/16 15:29:28;;;;;;;;;;;;;;;;;;2199585;59;1944;-15
2024/04/16 15:31:58;;;;;;;;;;;;;;;;;;2201209;59;1797;-14
2024/04/16 15:34:28;;;;;;;;;;;;;;;;;;2200256;58;1917;-14
2024/04/16 15:36:59;;;;;;;;;;;;;;;;;;2201238;59;2811;-14
2024/04/16 15:39:31;;;;;;;;;;;;;;;;;;2199422;66;2186;-15
2024/04/16 15:42:01;;;;;;;;;;;;;;;;;;2200708;66;2008;-14
2024/04/16 15:44:31;;;;;;;;;;;;;;;;;;2201134;66;2192;-13
2024/04/16 15:47:02;;;;;;;;;;;;;;;;;;2198196;59;2296;-14
2024/04/16 15:49:32;;;;;;;;;;;;;;;;;;2199401;66;2385;-14
2024/04/16 15:52:02;;;;;;;;;;;;;;;;;;2199757;63;2525;-14
2024/04/16 15:54:33;;;;;;;;;;;;;;;;;;2200579;59;2518;-14
2024/04/16 15:57:03;;;;;;;;;;;;;;;;;;2199464;59;2642;-14
2024/04/16 15:59:33;;;;;;;;;;;;;;;;;;2199897;59;2364;-14
2024/04/16 16:02:04;;;;;;;;;;;;;;;;;;2199413;59;2607;-14
2024/04/16 16:04:34;;;;;;;;;;;;;;;;;;2200461;59;3050;-15
2024/04/16 16:07:04;;;;;;;;;;;;;;;;;;2197022;66;1843;-13
2024/04/16 16:09:34;;;;;;;;;;;;;;;;;;2198079;66;2131;-15
2024/04/16 16:12:06;;;;;;;;;;;;;;;;;;2199356;59;2817;-13
2024/04/16 16:14:38;;;;;;;;;;;;;;;;;;2200462;59;2445;-14
2024/04/16 16:17:08;;;;;;;;;;;;;;;;;;2197319;59;3163;-15
2024/04/16 16:19:38;;;;;;;;;;;;;;;;;;2200304;66;2569;-15
2024/04/16 16:22:09;;;;;;;;;;;;;;;;;;2198876;66;2517;-14
2024/04/16 16:24:39;;;;;;;;;;;;;;;;;;2207130;59;1822;-15
2024/04/16 16:27:12;;;;;;;;;;;;;;;;;;2200541;58;1958;-15
2024/04/16 16:29:42;;;;;;;;;;;;;;;;;;2206860;66;2020;-15
2024/04/16 16:32:12;;;;;;;;;;;;;;;;;;2200494;59;2306;-14
2024/04/16 16:34:43;;;;;;;;;;;;;;;;;;2202967;59;2027;-13
2024/04/16 16:37:13;;;;;;;;;;;;;;;;;;2200697;66;1959;-14
2024/04/16 16:39:43;;;;;;;;;;;;;;;;;;2202051;66;2482;-15
2024/04/16 16:42:13;;;;;;;;;;;;;;;;;;2200115;66;2364;-14
2024/04/16 16:44:44;;;;;;;;;;;;;;;;;;2201741;66;1893;-14
2024/04/16 16:47:14;;;;;;;;;;;;;;;;;;2199255;66;1958;-15
2024/04/16 16:49:44;;;;;;;;;;;;;;;;;;2201192;66;1906;-14
2024/04/16 16:52:15;;;;;;;;;;;;;;;;;;2200445;59;2108;-14
2024/04/16 16:54:45;;;;;;;;;;;;;;;;;;2204188;67;1903;-15
2024/04/16 16:57:16;;;;;;;;;;;;;;;;;;2202095;60;1864;-15
2024/04/16 16:59:46;;;;;;;;;;;;;;;;;;2200463;59;2815;-14
2024/04/16 17:02:17;;;;;;;;;;;;;;;;;;2199172;59;2615;-14
2024/04/16 17:04:47;;;;;;;;;;;;;;;;;;2200637;59;3764;-14
2024/04/16 17:07:17;;;;;;;;;;;;;;;;;;2198309;59;3981;-14
2024/04/16 17:09:47;;;;;;;;;;;;;;;;;;2201299;59;2525;-13
2024/04/16 17:12:19;;;;;;;;;;;;;;;;;;2200554;66;1879;-14
2024/04/16 17:14:49;;;;;;;;;;;;;;;;;;2201329;66;1838;-15
2024/04/16 17:17:20;;;;;;;;;;;;;;;;;;2199885;66;1860;-16
2024/04/16 17:19:50;;;;;;;;;;;;;;;;;;2201270;58;1829;-16
2024/04/16 17:22:20;;;;;;;;;;;;;;;;;;2200237;66;1825;-16
2024/04/16 17:24:51;;;;;;;;;;;;;;;;;;2201961;58;1886;-16
2024/04/16 17:27:21;;;;;;;;;;;;;;;;;;2200328;59;1991;-16
2024/04/16 17:29:51;;;;;;;;;;;;;;;;;;2201921;66;2100;-16